sensor_id;sensor_type;location;lat;lon;timestamp;P1;durP1;ratioP1;P2;durP2;ratioP2
67867;SDS011;54672;46.096;14.470;2022-07-23T00:01:30;39.03;;;27.67;;
67867;SDS011;54672;46.096;14.470;2022-07-23T00:03:56;37.50;;;27.83;;
67867;SDS011;54672;46.096;14.470;2022-07-23T00:06:22;36.72;;;28.20;;
67867;SDS011;54672;46.096;14.470;2022-07-23T00:08:49;39.88;;;28.75;;
67867;SDS011;54672;46.096;14.470;2022-07-23T00:11:14;40.38;;;29.35;;
67867;SDS011;54672;46.096;14.470;2022-07-23T00:13:39;39.25;;;28.05;;
67867;SDS011;54672;46.096;14.470;2022-07-23T00:16:05;38.42;;;27.50;;
67867;SDS011;54672;46.096;14.470;2022-07-23T00:18:31;39.38;;;27.75;;
67867;SDS011;54672;46.096;14.470;2022-07-23T00:20:56;37.53;;;27.98;;
67867;SDS011;54672;46.096;14.470;2022-07-23T00:23:22;38.00;;;27.33;;
67867;SDS011;54672;46.096;14.470;2022-07-23T00:25:47;40.28;;;28.33;;
67867;SDS011;54672;46.096;14.470;2022-07-23T00:28:12;37.78;;;28.30;;
67867;SDS011;54672;46.096;14.470;2022-07-23T00:30:38;40.65;;;28.75;;
67867;SDS011;54672;46.096;14.470;2022-07-23T00:33:05;38.22;;;27.98;;
67867;SDS011;54672;46.096;14.470;2022-07-23T00:35:38;37.17;;;28.52;;
67867;SDS011;54672;46.096;14.470;2022-07-23T00:38:08;38.35;;;28.40;;
67867;SDS011;54672;46.096;14.470;2022-07-23T00:40:34;38.55;;;28.58;;
67867;SDS011;54672;46.096;14.470;2022-07-23T00:43:01;39.47;;;28.27;;
67867;SDS011;54672;46.096;14.470;2022-07-23T00:45:27;37.13;;;27.90;;
67867;SDS011;54672;46.096;14.470;2022-07-23T00:47:52;40.13;;;28.52;;
67867;SDS011;54672;46.096;14.470;2022-07-23T00:50:18;39.00;;;28.98;;
67867;SDS011;54672;46.096;14.470;2022-07-23T00:52:43;39.97;;;28.60;;
67867;SDS011;54672;46.096;14.470;2022-07-23T00:55:10;38.03;;;28.40;;
67867;SDS011;54672;46.096;14.470;2022-07-23T00:57:36;38.17;;;28.50;;
67867;SDS011;54672;46.096;14.470;2022-07-23T01:00:03;37.75;;;27.35;;
67867;SDS011;54672;46.096;14.470;2022-07-23T01:02:31;37.25;;;28.00;;
67867;SDS011;54672;46.096;14.470;2022-07-23T01:04:56;39.65;;;27.48;;
67867;SDS011;54672;46.096;14.470;2022-07-23T01:07:22;37.40;;;27.45;;
67867;SDS011;54672;46.096;14.470;2022-07-23T01:09:48;36.85;;;28.23;;
67867;SDS011;54672;46.096;14.470;2022-07-23T01:12:15;37.75;;;28.27;;
67867;SDS011;54672;46.096;14.470;2022-07-23T01:14:41;40.40;;;28.65;;
67867;SDS011;54672;46.096;14.470;2022-07-23T01:17:06;38.00;;;28.13;;
67867;SDS011;54672;46.096;14.470;2022-07-23T01:19:32;35.25;;;27.67;;
67867;SDS011;54672;46.096;14.470;2022-07-23T01:21:57;38.83;;;27.98;;
67867;SDS011;54672;46.096;14.470;2022-07-23T01:24:25;36.55;;;26.95;;
67867;SDS011;54672;46.096;14.470;2022-07-23T01:26:50;36.90;;;28.05;;
67867;SDS011;54672;46.096;14.470;2022-07-23T01:29:16;40.10;;;28.02;;
67867;SDS011;54672;46.096;14.470;2022-07-23T01:31:42;39.05;;;28.08;;
67867;SDS011;54672;46.096;14.470;2022-07-23T01:34:08;40.42;;;28.10;;
67867;SDS011;54672;46.096;14.470;2022-07-23T01:36:34;40.33;;;28.10;;
67867;SDS011;54672;46.096;14.470;2022-07-23T01:39:00;40.50;;;28.35;;
67867;SDS011;54672;46.096;14.470;2022-07-23T01:41:26;36.92;;;27.70;;
67867;SDS011;54672;46.096;14.470;2022-07-23T01:43:51;41.70;;;28.20;;
67867;SDS011;54672;46.096;14.470;2022-07-23T01:46:17;38.30;;;27.63;;
67867;SDS011;54672;46.096;14.470;2022-07-23T01:48:42;40.42;;;28.75;;
67867;SDS011;54672;46.096;14.470;2022-07-23T01:51:08;38.78;;;28.08;;
67867;SDS011;54672;46.096;14.470;2022-07-23T01:53:33;38.03;;;27.92;;
67867;SDS011;54672;46.096;14.470;2022-07-23T01:55:59;37.55;;;27.60;;
67867;SDS011;54672;46.096;14.470;2022-07-23T01:58:26;37.72;;;28.30;;
67867;SDS011;54672;46.096;14.470;2022-07-23T02:00:52;39.13;;;28.23;;
67867;SDS011;54672;46.096;14.470;2022-07-23T02:03:19;42.28;;;29.05;;
67867;SDS011;54672;46.096;14.470;2022-07-23T02:05:45;45.08;;;29.00;;
67867;SDS011;54672;46.096;14.470;2022-07-23T02:08:10;38.20;;;27.52;;
67867;SDS011;54672;46.096;14.470;2022-07-23T02:10:36;38.70;;;26.77;;
67867;SDS011;54672;46.096;14.470;2022-07-23T02:13:01;35.47;;;26.60;;
67867;SDS011;54672;46.096;14.470;2022-07-23T02:15:26;35.42;;;26.50;;
67867;SDS011;54672;46.096;14.470;2022-07-23T02:17:53;37.47;;;26.10;;
67867;SDS011;54672;46.096;14.470;2022-07-23T02:20:19;37.85;;;27.70;;
67867;SDS011;54672;46.096;14.470;2022-07-23T02:22:44;36.00;;;26.45;;
67867;SDS011;54672;46.096;14.470;2022-07-23T02:25:10;38.88;;;28.25;;
67867;SDS011;54672;46.096;14.470;2022-07-23T02:27:35;39.42;;;27.48;;
67867;SDS011;54672;46.096;14.470;2022-07-23T02:30:01;46.08;;;29.50;;
67867;SDS011;54672;46.096;14.470;2022-07-23T02:32:27;40.10;;;28.15;;
67867;SDS011;54672;46.096;14.470;2022-07-23T02:34:52;36.88;;;27.58;;
67867;SDS011;54672;46.096;14.470;2022-07-23T02:37:17;41.63;;;27.60;;
67867;SDS011;54672;46.096;14.470;2022-07-23T02:39:43;37.75;;;26.90;;
67867;SDS011;54672;46.096;14.470;2022-07-23T02:42:09;38.70;;;27.25;;
67867;SDS011;54672;46.096;14.470;2022-07-23T02:44:34;39.50;;;28.05;;
67867;SDS011;54672;46.096;14.470;2022-07-23T02:47:00;39.75;;;28.60;;
67867;SDS011;54672;46.096;14.470;2022-07-23T02:49:25;40.42;;;28.23;;
67867;SDS011;54672;46.096;14.470;2022-07-23T02:51:51;37.15;;;27.48;;
67867;SDS011;54672;46.096;14.470;2022-07-23T02:54:17;37.65;;;26.23;;
67867;SDS011;54672;46.096;14.470;2022-07-23T02:56:42;38.97;;;27.70;;
67867;SDS011;54672;46.096;14.470;2022-07-23T02:59:08;40.97;;;28.95;;
67867;SDS011;54672;46.096;14.470;2022-07-23T03:01:33;35.03;;;28.38;;
67867;SDS011;54672;46.096;14.470;2022-07-23T03:03:59;42.15;;;28.58;;
67867;SDS011;54672;46.096;14.470;2022-07-23T03:06:24;40.45;;;28.80;;
67867;SDS011;54672;46.096;14.470;2022-07-23T03:08:50;39.20;;;28.90;;
67867;SDS011;54672;46.096;14.470;2022-07-23T03:11:15;38.67;;;28.67;;
67867;SDS011;54672;46.096;14.470;2022-07-23T03:13:41;41.03;;;29.13;;
67867;SDS011;54672;46.096;14.470;2022-07-23T03:16:06;40.45;;;29.08;;
67867;SDS011;54672;46.096;14.470;2022-07-23T03:18:32;40.75;;;28.48;;
67867;SDS011;54672;46.096;14.470;2022-07-23T03:20:58;41.70;;;28.88;;
67867;SDS011;54672;46.096;14.470;2022-07-23T03:23:24;44.28;;;28.40;;
67867;SDS011;54672;46.096;14.470;2022-07-23T03:25:49;43.25;;;29.13;;
67867;SDS011;54672;46.096;14.470;2022-07-23T03:28:15;39.88;;;28.35;;
67867;SDS011;54672;46.096;14.470;2022-07-23T03:30:45;38.80;;;27.65;;
67867;SDS011;54672;46.096;14.470;2022-07-23T03:33:15;39.40;;;27.73;;
67867;SDS011;54672;46.096;14.470;2022-07-23T03:35:44;42.05;;;29.27;;
67867;SDS011;54672;46.096;14.470;2022-07-23T03:38:10;42.88;;;28.02;;
67867;SDS011;54672;46.096;14.470;2022-07-23T03:40:36;44.72;;;29.25;;
67867;SDS011;54672;46.096;14.470;2022-07-23T03:43:01;39.15;;;27.80;;
67867;SDS011;54672;46.096;14.470;2022-07-23T03:45:27;42.90;;;28.83;;
67867;SDS011;54672;46.096;14.470;2022-07-23T03:47:52;37.78;;;28.02;;
67867;SDS011;54672;46.096;14.470;2022-07-23T03:50:18;42.08;;;27.55;;
67867;SDS011;54672;46.096;14.470;2022-07-23T03:52:44;38.13;;;28.85;;
67867;SDS011;54672;46.096;14.470;2022-07-23T03:55:09;39.83;;;28.33;;
67867;SDS011;54672;46.096;14.470;2022-07-23T03:57:35;41.80;;;28.50;;
67867;SDS011;54672;46.096;14.470;2022-07-23T04:00:01;40.85;;;29.27;;
67867;SDS011;54672;46.096;14.470;2022-07-23T04:02:28;39.80;;;28.10;;
67867;SDS011;54672;46.096;14.470;2022-07-23T04:04:54;38.00;;;28.30;;
67867;SDS011;54672;46.096;14.470;2022-07-23T04:07:19;42.40;;;28.40;;
67867;SDS011;54672;46.096;14.470;2022-07-23T04:09:45;38.40;;;28.23;;
67867;SDS011;54672;46.096;14.470;2022-07-23T04:12:10;38.90;;;28.35;;
67867;SDS011;54672;46.096;14.470;2022-07-23T04:14:35;38.15;;;28.25;;
67867;SDS011;54672;46.096;14.470;2022-07-23T04:17:01;37.65;;;27.88;;
67867;SDS011;54672;46.096;14.470;2022-07-23T04:19:27;38.00;;;27.05;;
67867;SDS011;54672;46.096;14.470;2022-07-23T04:21:52;37.20;;;26.55;;
67867;SDS011;54672;46.096;14.470;2022-07-23T04:24:18;37.15;;;26.90;;
67867;SDS011;54672;46.096;14.470;2022-07-23T04:26:44;34.10;;;26.75;;
67867;SDS011;54672;46.096;14.470;2022-07-23T04:29:10;36.88;;;27.33;;
67867;SDS011;54672;46.096;14.470;2022-07-23T04:31:35;35.17;;;27.35;;
67867;SDS011;54672;46.096;14.470;2022-07-23T04:34:01;33.17;;;27.15;;
67867;SDS011;54672;46.096;14.470;2022-07-23T04:36:26;34.47;;;26.20;;
67867;SDS011;54672;46.096;14.470;2022-07-23T04:38:52;32.78;;;25.77;;
67867;SDS011;54672;46.096;14.470;2022-07-23T04:41:18;34.53;;;25.67;;
67867;SDS011;54672;46.096;14.470;2022-07-23T04:43:43;33.83;;;25.13;;
67867;SDS011;54672;46.096;14.470;2022-07-23T04:46:08;34.10;;;26.55;;
67867;SDS011;54672;46.096;14.470;2022-07-23T04:48:35;33.95;;;26.40;;
67867;SDS011;54672;46.096;14.470;2022-07-23T04:51:01;32.20;;;27.08;;
67867;SDS011;54672;46.096;14.470;2022-07-23T04:53:26;35.80;;;26.95;;
67867;SDS011;54672;46.096;14.470;2022-07-23T04:55:52;32.40;;;26.23;;
67867;SDS011;54672;46.096;14.470;2022-07-23T04:58:17;33.38;;;25.75;;
67867;SDS011;54672;46.096;14.470;2022-07-23T05:00:42;35.83;;;26.08;;
67867;SDS011;54672;46.096;14.470;2022-07-23T05:03:08;33.50;;;25.48;;
67867;SDS011;54672;46.096;14.470;2022-07-23T05:05:33;34.92;;;25.15;;
67867;SDS011;54672;46.096;14.470;2022-07-23T05:07:58;33.35;;;26.05;;
67867;SDS011;54672;46.096;14.470;2022-07-23T05:10:24;34.33;;;27.40;;
67867;SDS011;54672;46.096;14.470;2022-07-23T05:12:49;34.40;;;26.02;;
67867;SDS011;54672;46.096;14.470;2022-07-23T05:15:14;31.73;;;25.60;;
67867;SDS011;54672;46.096;14.470;2022-07-23T05:17:40;34.83;;;24.52;;
67867;SDS011;54672;46.096;14.470;2022-07-23T05:20:05;31.17;;;25.25;;
67867;SDS011;54672;46.096;14.470;2022-07-23T05:22:31;31.83;;;24.50;;
67867;SDS011;54672;46.096;14.470;2022-07-23T05:24:58;31.75;;;24.50;;
67867;SDS011;54672;46.096;14.470;2022-07-23T05:27:23;31.98;;;24.55;;
67867;SDS011;54672;46.096;14.470;2022-07-23T05:29:48;30.45;;;24.75;;
67867;SDS011;54672;46.096;14.470;2022-07-23T05:32:14;28.77;;;23.70;;
67867;SDS011;54672;46.096;14.470;2022-07-23T05:34:39;29.65;;;23.75;;
67867;SDS011;54672;46.096;14.470;2022-07-23T05:37:05;31.13;;;22.58;;
67867;SDS011;54672;46.096;14.470;2022-07-23T05:39:31;32.20;;;23.25;;
67867;SDS011;54672;46.096;14.470;2022-07-23T05:41:56;28.35;;;23.25;;
67867;SDS011;54672;46.096;14.470;2022-07-23T05:44:22;28.23;;;22.92;;
67867;SDS011;54672;46.096;14.470;2022-07-23T05:46:47;30.73;;;23.90;;
67867;SDS011;54672;46.096;14.470;2022-07-23T05:49:12;29.58;;;23.73;;
67867;SDS011;54672;46.096;14.470;2022-07-23T05:51:38;31.63;;;23.70;;
67867;SDS011;54672;46.096;14.470;2022-07-23T05:54:03;31.15;;;22.88;;
67867;SDS011;54672;46.096;14.470;2022-07-23T05:56:29;26.65;;;23.38;;
67867;SDS011;54672;46.096;14.470;2022-07-23T05:58:54;27.48;;;22.83;;
67867;SDS011;54672;46.096;14.470;2022-07-23T06:01:19;26.40;;;23.35;;
67867;SDS011;54672;46.096;14.470;2022-07-23T06:03:45;29.95;;;23.38;;
67867;SDS011;54672;46.096;14.470;2022-07-23T06:06:10;36.75;;;24.33;;
67867;SDS011;54672;46.096;14.470;2022-07-23T06:08:36;30.58;;;24.15;;
67867;SDS011;54672;46.096;14.470;2022-07-23T06:11:01;31.48;;;22.42;;
67867;SDS011;54672;46.096;14.470;2022-07-23T06:13:27;39.22;;;23.83;;
67867;SDS011;54672;46.096;14.470;2022-07-23T06:15:53;28.38;;;22.65;;
67867;SDS011;54672;46.096;14.470;2022-07-23T06:18:18;29.10;;;23.23;;
67867;SDS011;54672;46.096;14.470;2022-07-23T06:20:44;27.50;;;22.25;;
67867;SDS011;54672;46.096;14.470;2022-07-23T06:23:09;26.30;;;21.92;;
67867;SDS011;54672;46.096;14.470;2022-07-23T06:25:35;28.58;;;23.00;;
67867;SDS011;54672;46.096;14.470;2022-07-23T06:28:00;23.98;;;21.48;;
67867;SDS011;54672;46.096;14.470;2022-07-23T06:30:26;25.60;;;22.77;;
67867;SDS011;54672;46.096;14.470;2022-07-23T06:32:51;24.95;;;22.27;;
67867;SDS011;54672;46.096;14.470;2022-07-23T06:35:17;26.70;;;23.10;;
67867;SDS011;54672;46.096;14.470;2022-07-23T06:37:42;24.48;;;21.88;;
67867;SDS011;54672;46.096;14.470;2022-07-23T06:40:08;25.88;;;22.92;;
67867;SDS011;54672;46.096;14.470;2022-07-23T06:42:34;26.30;;;22.83;;
67867;SDS011;54672;46.096;14.470;2022-07-23T06:45:02;25.75;;;23.02;;
67867;SDS011;54672;46.096;14.470;2022-07-23T06:47:28;25.80;;;23.10;;
67867;SDS011;54672;46.096;14.470;2022-07-23T06:49:54;27.83;;;22.95;;
67867;SDS011;54672;46.096;14.470;2022-07-23T06:52:19;24.63;;;21.95;;
67867;SDS011;54672;46.096;14.470;2022-07-23T06:54:45;24.33;;;21.73;;
67867;SDS011;54672;46.096;14.470;2022-07-23T06:57:10;26.58;;;22.08;;
67867;SDS011;54672;46.096;14.470;2022-07-23T06:59:35;23.85;;;21.35;;
67867;SDS011;54672;46.096;14.470;2022-07-23T07:02:05;26.55;;;21.05;;
67867;SDS011;54672;46.096;14.470;2022-07-23T07:04:31;25.63;;;21.30;;
67867;SDS011;54672;46.096;14.470;2022-07-23T07:06:57;25.10;;;21.20;;
67867;SDS011;54672;46.096;14.470;2022-07-23T07:09:22;26.55;;;21.52;;
67867;SDS011;54672;46.096;14.470;2022-07-23T07:11:47;26.42;;;22.15;;
67867;SDS011;54672;46.096;14.470;2022-07-23T07:14:13;25.05;;;21.42;;
67867;SDS011;54672;46.096;14.470;2022-07-23T07:16:38;22.80;;;20.23;;
67867;SDS011;54672;46.096;14.470;2022-07-23T07:19:04;21.95;;;19.30;;
67867;SDS011;54672;46.096;14.470;2022-07-23T07:21:29;25.00;;;20.75;;
67867;SDS011;54672;46.096;14.470;2022-07-23T07:23:54;24.77;;;21.50;;
67867;SDS011;54672;46.096;14.470;2022-07-23T07:26:20;27.42;;;21.10;;
67867;SDS011;54672;46.096;14.470;2022-07-23T07:28:45;27.33;;;20.23;;
67867;SDS011;54672;46.096;14.470;2022-07-23T07:31:11;23.50;;;20.08;;
67867;SDS011;54672;46.096;14.470;2022-07-23T07:33:36;25.15;;;19.83;;
67867;SDS011;54672;46.096;14.470;2022-07-23T07:36:02;26.48;;;19.67;;
67867;SDS011;54672;46.096;14.470;2022-07-23T07:38:27;24.38;;;20.00;;
67867;SDS011;54672;46.096;14.470;2022-07-23T07:40:53;22.42;;;19.55;;
67867;SDS011;54672;46.096;14.470;2022-07-23T07:43:18;23.77;;;19.25;;
67867;SDS011;54672;46.096;14.470;2022-07-23T07:45:44;23.50;;;20.35;;
67867;SDS011;54672;46.096;14.470;2022-07-23T07:48:09;23.70;;;19.42;;
67867;SDS011;54672;46.096;14.470;2022-07-23T07:50:35;24.33;;;19.98;;
67867;SDS011;54672;46.096;14.470;2022-07-23T07:53:00;27.88;;;20.83;;
67867;SDS011;54672;46.096;14.470;2022-07-23T07:55:25;28.33;;;20.50;;
67867;SDS011;54672;46.096;14.470;2022-07-23T07:57:52;25.38;;;20.45;;
67867;SDS011;54672;46.096;14.470;2022-07-23T08:00:17;28.73;;;21.25;;
67867;SDS011;54672;46.096;14.470;2022-07-23T08:02:47;23.55;;;20.63;;
67867;SDS011;54672;46.096;14.470;2022-07-23T08:05:14;23.90;;;20.38;;
67867;SDS011;54672;46.096;14.470;2022-07-23T08:07:43;24.60;;;20.98;;
67867;SDS011;54672;46.096;14.470;2022-07-23T08:10:09;24.17;;;20.92;;
67867;SDS011;54672;46.096;14.470;2022-07-23T08:12:42;26.38;;;20.80;;
67867;SDS011;54672;46.096;14.470;2022-07-23T08:15:12;23.88;;;20.83;;
67867;SDS011;54672;46.096;14.470;2022-07-23T08:17:39;25.20;;;20.38;;
67867;SDS011;54672;46.096;14.470;2022-07-23T08:20:05;26.17;;;21.25;;
67867;SDS011;54672;46.096;14.470;2022-07-23T08:22:41;27.23;;;21.20;;
67867;SDS011;54672;46.096;14.470;2022-07-23T08:25:07;26.60;;;22.05;;
67867;SDS011;54672;46.096;14.470;2022-07-23T08:27:32;23.58;;;20.63;;
67867;SDS011;54672;46.096;14.470;2022-07-23T08:29:58;25.25;;;20.88;;
67867;SDS011;54672;46.096;14.470;2022-07-23T08:32:23;24.63;;;21.52;;
67867;SDS011;54672;46.096;14.470;2022-07-23T08:34:48;24.60;;;22.00;;
67867;SDS011;54672;46.096;14.470;2022-07-23T08:37:14;28.63;;;22.35;;
67867;SDS011;54672;46.096;14.470;2022-07-23T08:39:39;26.33;;;20.52;;
67867;SDS011;54672;46.096;14.470;2022-07-23T08:42:04;26.67;;;22.33;;
67867;SDS011;54672;46.096;14.470;2022-07-23T08:44:31;27.98;;;22.60;;
67867;SDS011;54672;46.096;14.470;2022-07-23T08:46:56;25.55;;;22.80;;
67867;SDS011;54672;46.096;14.470;2022-07-23T08:49:22;26.15;;;23.25;;
67867;SDS011;54672;46.096;14.470;2022-07-23T08:51:47;27.52;;;22.70;;
67867;SDS011;54672;46.096;14.470;2022-07-23T08:54:13;27.02;;;23.45;;
67867;SDS011;54672;46.096;14.470;2022-07-23T08:56:38;31.75;;;25.35;;
67867;SDS011;54672;46.096;14.470;2022-07-23T08:59:04;27.95;;;24.30;;
67867;SDS011;54672;46.096;14.470;2022-07-23T09:01:30;30.00;;;25.40;;
67867;SDS011;54672;46.096;14.470;2022-07-23T09:03:55;29.38;;;24.70;;
67867;SDS011;54672;46.096;14.470;2022-07-23T09:06:21;30.77;;;25.02;;
67867;SDS011;54672;46.096;14.470;2022-07-23T09:08:46;28.45;;;23.63;;
67867;SDS011;54672;46.096;14.470;2022-07-23T09:11:13;27.52;;;24.08;;
67867;SDS011;54672;46.096;14.470;2022-07-23T09:13:48;27.88;;;23.85;;
67867;SDS011;54672;46.096;14.470;2022-07-23T09:16:19;32.55;;;25.52;;
67867;SDS011;54672;46.096;14.470;2022-07-23T09:18:59;29.27;;;25.67;;
67867;SDS011;54672;46.096;14.470;2022-07-23T09:21:26;31.97;;;25.50;;
67867;SDS011;54672;46.096;14.470;2022-07-23T09:26:27;28.00;;;24.60;;
67867;SDS011;54672;46.096;14.470;2022-07-23T09:31:56;28.65;;;25.65;;
67867;SDS011;54672;46.096;14.470;2022-07-23T09:34:36;31.75;;;25.70;;
67867;SDS011;54672;46.096;14.470;2022-07-23T09:37:08;29.95;;;25.88;;
67867;SDS011;54672;46.096;14.470;2022-07-23T09:39:44;30.38;;;25.92;;
67867;SDS011;54672;46.096;14.470;2022-07-23T09:44:40;33.70;;;26.70;;
67867;SDS011;54672;46.096;14.470;2022-07-23T09:47:07;31.65;;;27.15;;
67867;SDS011;54672;46.096;14.470;2022-07-23T09:49:33;32.72;;;28.15;;
67867;SDS011;54672;46.096;14.470;2022-07-23T09:51:59;34.83;;;28.45;;
67867;SDS011;54672;46.096;14.470;2022-07-23T09:56:56;35.17;;;28.17;;
67867;SDS011;54672;46.096;14.470;2022-07-23T09:59:23;33.67;;;27.73;;
67867;SDS011;54672;46.096;14.470;2022-07-23T10:01:53;32.50;;;28.13;;
67867;SDS011;54672;46.096;14.470;2022-07-23T10:04:22;33.72;;;28.98;;
67867;SDS011;54672;46.096;14.470;2022-07-23T10:06:53;32.88;;;29.17;;
67867;SDS011;54672;46.096;14.470;2022-07-23T10:09:24;35.53;;;29.58;;
67867;SDS011;54672;46.096;14.470;2022-07-23T10:11:56;33.13;;;28.48;;
67867;SDS011;54672;46.096;14.470;2022-07-23T10:14:49;32.65;;;28.42;;
67867;SDS011;54672;46.096;14.470;2022-07-23T10:17:16;34.10;;;28.20;;
67867;SDS011;54672;46.096;14.470;2022-07-23T10:19:41;31.95;;;28.20;;
67867;SDS011;54672;46.096;14.470;2022-07-23T10:22:12;34.28;;;29.33;;
67867;SDS011;54672;46.096;14.470;2022-07-23T10:29:55;32.28;;;27.15;;
67867;SDS011;54672;46.096;14.470;2022-07-23T10:42:47;30.17;;;23.95;;
67867;SDS011;54672;46.096;14.470;2022-07-23T10:45:33;28.58;;;24.13;;
67867;SDS011;54672;46.096;14.470;2022-07-23T10:50:43;26.40;;;23.10;;
67867;SDS011;54672;46.096;14.470;2022-07-23T10:53:28;26.23;;;21.27;;
67867;SDS011;54672;46.096;14.470;2022-07-23T10:59:19;23.70;;;19.27;;
67867;SDS011;54672;46.096;14.470;2022-07-23T11:01:45;19.80;;;17.65;;
67867;SDS011;54672;46.096;14.470;2022-07-23T11:04:11;20.83;;;17.60;;
67867;SDS011;54672;46.096;14.470;2022-07-23T11:07:20;22.13;;;18.27;;
67867;SDS011;54672;46.096;14.470;2022-07-23T11:09:27;22.05;;;17.45;;
67867;SDS011;54672;46.096;14.470;2022-07-23T11:14:59;19.85;;;16.83;;
67867;SDS011;54672;46.096;14.470;2022-07-23T11:17:37;20.45;;;17.67;;
67867;SDS011;54672;46.096;14.470;2022-07-23T11:20:22;23.48;;;18.58;;
67867;SDS011;54672;46.096;14.470;2022-07-23T11:27:54;24.17;;;19.05;;
67867;SDS011;54672;46.096;14.470;2022-07-23T11:35:32;21.95;;;18.67;;
67867;SDS011;54672;46.096;14.470;2022-07-23T11:38:11;22.02;;;18.50;;
67867;SDS011;54672;46.096;14.470;2022-07-23T11:40:51;25.45;;;20.25;;
67867;SDS011;54672;46.096;14.470;2022-07-23T11:43:19;22.02;;;18.23;;
67867;SDS011;54672;46.096;14.470;2022-07-23T11:45:46;21.50;;;18.08;;
67867;SDS011;54672;46.096;14.470;2022-07-23T11:48:34;22.33;;;18.20;;
67867;SDS011;54672;46.096;14.470;2022-07-23T11:51:00;18.52;;;16.58;;
67867;SDS011;54672;46.096;14.470;2022-07-23T11:53:30;21.10;;;17.15;;
67867;SDS011;54672;46.096;14.470;2022-07-23T11:56:07;20.13;;;16.48;;
67867;SDS011;54672;46.096;14.470;2022-07-23T11:58:36;20.40;;;16.35;;
67867;SDS011;54672;46.096;14.470;2022-07-23T12:01:03;19.35;;;16.60;;
67867;SDS011;54672;46.096;14.470;2022-07-23T12:03:29;18.15;;;16.05;;
67867;SDS011;54672;46.096;14.470;2022-07-23T12:05:57;21.52;;;17.10;;
67867;SDS011;54672;46.096;14.470;2022-07-23T12:08:24;19.40;;;15.90;;
67867;SDS011;54672;46.096;14.470;2022-07-23T12:10:49;19.10;;;15.40;;
67867;SDS011;54672;46.096;14.470;2022-07-23T12:13:16;21.08;;;14.60;;
67867;SDS011;54672;46.096;14.470;2022-07-23T12:15:44;16.63;;;14.82;;
67867;SDS011;54672;46.096;14.470;2022-07-23T12:18:12;16.23;;;14.30;;
67867;SDS011;54672;46.096;14.470;2022-07-23T12:20:43;18.52;;;15.73;;
67867;SDS011;54672;46.096;14.470;2022-07-23T12:23:11;17.13;;;15.15;;
67867;SDS011;54672;46.096;14.470;2022-07-23T12:25:41;17.73;;;13.38;;
67867;SDS011;54672;46.096;14.470;2022-07-23T12:28:12;15.40;;;13.13;;
67867;SDS011;54672;46.096;14.470;2022-07-23T12:30:46;16.73;;;13.07;;
67867;SDS011;54672;46.096;14.470;2022-07-23T12:33:14;15.45;;;13.68;;
67867;SDS011;54672;46.096;14.470;2022-07-23T12:35:46;15.82;;;13.43;;
67867;SDS011;54672;46.096;14.470;2022-07-23T12:38:16;14.75;;;13.15;;
67867;SDS011;54672;46.096;14.470;2022-07-23T12:41:06;12.85;;;11.55;;
67867;SDS011;54672;46.096;14.470;2022-07-23T12:43:32;15.32;;;12.50;;
67867;SDS011;54672;46.096;14.470;2022-07-23T12:46:07;13.80;;;12.18;;
67867;SDS011;54672;46.096;14.470;2022-07-23T12:51:16;13.43;;;11.07;;
67867;SDS011;54672;46.096;14.470;2022-07-23T12:53:50;13.20;;;11.82;;
67867;SDS011;54672;46.096;14.470;2022-07-23T13:04:04;15.23;;;11.88;;
67867;SDS011;54672;46.096;14.470;2022-07-23T13:06:31;13.40;;;12.00;;
67867;SDS011;54672;46.096;14.470;2022-07-23T13:09:00;17.00;;;13.98;;
67867;SDS011;54672;46.096;14.470;2022-07-23T13:11:27;16.60;;;13.00;;
67867;SDS011;54672;46.096;14.470;2022-07-23T13:13:52;14.80;;;12.35;;
67867;SDS011;54672;46.096;14.470;2022-07-23T13:16:18;15.80;;;12.48;;
67867;SDS011;54672;46.096;14.470;2022-07-23T13:18:44;13.40;;;11.98;;
67867;SDS011;54672;46.096;14.470;2022-07-23T13:21:09;12.55;;;11.20;;
67867;SDS011;54672;46.096;14.470;2022-07-23T13:23:35;13.15;;;11.10;;
67867;SDS011;54672;46.096;14.470;2022-07-23T13:26:01;13.07;;;10.43;;
67867;SDS011;54672;46.096;14.470;2022-07-23T13:28:27;12.85;;;11.10;;
67867;SDS011;54672;46.096;14.470;2022-07-23T13:30:52;11.65;;;10.13;;
67867;SDS011;54672;46.096;14.470;2022-07-23T13:33:22;13.43;;;10.77;;
67867;SDS011;54672;46.096;14.470;2022-07-23T13:35:49;14.70;;;11.02;;
67867;SDS011;54672;46.096;14.470;2022-07-23T13:38:16;12.82;;;11.23;;
67867;SDS011;54672;46.096;14.470;2022-07-23T13:40:43;12.73;;;10.65;;
67867;SDS011;54672;46.096;14.470;2022-07-23T13:43:11;11.65;;;10.50;;
67867;SDS011;54672;46.096;14.470;2022-07-23T13:45:39;14.13;;;9.98;;
67867;SDS011;54672;46.096;14.470;2022-07-23T13:48:05;12.63;;;10.70;;
67867;SDS011;54672;46.096;14.470;2022-07-23T13:50:32;14.27;;;10.57;;
67867;SDS011;54672;46.096;14.470;2022-07-23T13:53:02;11.65;;;10.45;;
67867;SDS011;54672;46.096;14.470;2022-07-23T13:55:29;14.80;;;11.43;;
67867;SDS011;54672;46.096;14.470;2022-07-23T13:57:55;16.45;;;13.40;;
67867;SDS011;54672;46.096;14.470;2022-07-23T14:00:21;14.38;;;12.57;;
67867;SDS011;54672;46.096;14.470;2022-07-23T14:02:46;14.30;;;12.65;;
67867;SDS011;54672;46.096;14.470;2022-07-23T14:05:12;14.30;;;12.80;;
67867;SDS011;54672;46.096;14.470;2022-07-23T14:07:37;14.70;;;11.82;;
67867;SDS011;54672;46.096;14.470;2022-07-23T14:10:04;12.07;;;10.60;;
67867;SDS011;54672;46.096;14.470;2022-07-23T14:12:32;14.77;;;10.75;;
67867;SDS011;54672;46.096;14.470;2022-07-23T14:14:58;10.32;;;7.75;;
67867;SDS011;54672;46.096;14.470;2022-07-23T14:17:23;8.70;;;6.88;;
67867;SDS011;54672;46.096;14.470;2022-07-23T14:19:49;8.02;;;6.78;;
67867;SDS011;54672;46.096;14.470;2022-07-23T14:22:15;10.73;;;6.40;;
67867;SDS011;54672;46.096;14.470;2022-07-23T14:24:40;8.70;;;7.32;;
67867;SDS011;54672;46.096;14.470;2022-07-23T14:27:06;9.32;;;7.72;;
67867;SDS011;54672;46.096;14.470;2022-07-23T14:29:31;11.05;;;7.97;;
67867;SDS011;54672;46.096;14.470;2022-07-23T14:31:57;11.77;;;8.20;;
67867;SDS011;54672;46.096;14.470;2022-07-23T14:34:23;8.80;;;7.63;;
67867;SDS011;54672;46.096;14.470;2022-07-23T14:36:50;7.25;;;6.40;;
67867;SDS011;54672;46.096;14.470;2022-07-23T14:39:15;8.27;;;6.38;;
67867;SDS011;54672;46.096;14.470;2022-07-23T14:41:41;7.10;;;5.53;;
67867;SDS011;54672;46.096;14.470;2022-07-23T14:44:06;7.50;;;5.70;;
67867;SDS011;54672;46.096;14.470;2022-07-23T14:46:31;8.88;;;6.07;;
67867;SDS011;54672;46.096;14.470;2022-07-23T14:48:57;8.07;;;6.30;;
67867;SDS011;54672;46.096;14.470;2022-07-23T14:51:22;8.10;;;5.93;;
67867;SDS011;54672;46.096;14.470;2022-07-23T14:53:48;8.45;;;6.00;;
67867;SDS011;54672;46.096;14.470;2022-07-23T14:56:13;6.18;;;5.28;;
67867;SDS011;54672;46.096;14.470;2022-07-23T14:58:40;6.80;;;5.53;;
67867;SDS011;54672;46.096;14.470;2022-07-23T15:01:06;10.13;;;5.88;;
67867;SDS011;54672;46.096;14.470;2022-07-23T15:03:31;7.63;;;5.43;;
67867;SDS011;54672;46.096;14.470;2022-07-23T15:05:57;7.40;;;6.18;;